sensor_id;sensor_type;location;lat;lon;timestamp;P1;durP1;ratioP1;P2;durP2;ratioP2
20271;SDS011;10295;49.812;9.866;2023-02-15T00:01:45;96.20;;;30.70;;
20271;SDS011;10295;49.812;9.866;2023-02-15T00:04:13;105.47;;;32.03;;
20271;SDS011;10295;49.812;9.866;2023-02-15T00:06:40;107.80;;;34.13;;
20271;SDS011;10295;49.812;9.866;2023-02-15T00:09:10;107.73;;;33.53;;
20271;SDS011;10295;49.812;9.866;2023-02-15T00:11:38;106.43;;;33.23;;
20271;SDS011;10295;49.812;9.866;2023-02-15T00:16:33;112.50;;;33.63;;
20271;SDS011;10295;49.812;9.866;2023-02-15T00:19:01;110.97;;;33.67;;
20271;SDS011;10295;49.812;9.866;2023-02-15T00:21:29;116.87;;;34.40;;
20271;SDS011;10295;49.812;9.866;2023-02-15T00:23:59;119.70;;;33.93;;
20271;SDS011;10295;49.812;9.866;2023-02-15T00:26:26;111.07;;;33.80;;
20271;SDS011;10295;49.812;9.866;2023-02-15T00:28:54;108.23;;;33.70;;
20271;SDS011;10295;49.812;9.866;2023-02-15T00:31:21;113.03;;;32.13;;
20271;SDS011;10295;49.812;9.866;2023-02-15T00:33:48;110.60;;;34.07;;
20271;SDS011;10295;49.812;9.866;2023-02-15T00:36:15;112.33;;;33.30;;
20271;SDS011;10295;49.812;9.866;2023-02-15T00:38:43;113.07;;;33.83;;
20271;SDS011;10295;49.812;9.866;2023-02-15T00:41:10;105.83;;;30.47;;
20271;SDS011;10295;49.812;9.866;2023-02-15T00:43:37;114.20;;;33.27;;
20271;SDS011;10295;49.812;9.866;2023-02-15T00:46:04;114.17;;;36.07;;
20271;SDS011;10295;49.812;9.866;2023-02-15T00:48:32;115.97;;;34.90;;
20271;SDS011;10295;49.812;9.866;2023-02-15T00:50:59;99.43;;;33.67;;
20271;SDS011;10295;49.812;9.866;2023-02-15T00:53:28;104.17;;;32.77;;
20271;SDS011;10295;49.812;9.866;2023-02-15T00:55:55;104.23;;;34.03;;
20271;SDS011;10295;49.812;9.866;2023-02-15T00:58:23;110.90;;;34.17;;
20271;SDS011;10295;49.812;9.866;2023-02-15T01:00:50;116.50;;;35.37;;
20271;SDS011;10295;49.812;9.866;2023-02-15T01:03:18;109.67;;;33.90;;
20271;SDS011;10295;49.812;9.866;2023-02-15T01:05:46;116.70;;;35.30;;
20271;SDS011;10295;49.812;9.866;2023-02-15T01:08:14;106.30;;;35.03;;
20271;SDS011;10295;49.812;9.866;2023-02-15T01:10:41;104.07;;;34.23;;
20271;SDS011;10295;49.812;9.866;2023-02-15T01:13:10;103.73;;;33.50;;
20271;SDS011;10295;49.812;9.866;2023-02-15T01:15:37;108.90;;;34.67;;
20271;SDS011;10295;49.812;9.866;2023-02-15T01:18:04;104.33;;;34.87;;
20271;SDS011;10295;49.812;9.866;2023-02-15T01:20:33;95.90;;;32.20;;
20271;SDS011;10295;49.812;9.866;2023-02-15T01:23:01;89.50;;;32.90;;
20271;SDS011;10295;49.812;9.866;2023-02-15T01:25:28;93.53;;;31.37;;
20271;SDS011;10295;49.812;9.866;2023-02-15T01:27:55;90.97;;;31.13;;
20271;SDS011;10295;49.812;9.866;2023-02-15T01:30:22;87.07;;;30.73;;
20271;SDS011;10295;49.812;9.866;2023-02-15T01:32:49;90.37;;;29.83;;
20271;SDS011;10295;49.812;9.866;2023-02-15T01:35:17;87.57;;;30.57;;
20271;SDS011;10295;49.812;9.866;2023-02-15T01:37:44;88.13;;;30.30;;
20271;SDS011;10295;49.812;9.866;2023-02-15T01:40:12;87.87;;;31.87;;
20271;SDS011;10295;49.812;9.866;2023-02-15T01:42:40;86.63;;;29.80;;
20271;SDS011;10295;49.812;9.866;2023-02-15T01:47:44;90.67;;;31.63;;
20271;SDS011;10295;49.812;9.866;2023-02-15T01:50:13;87.47;;;29.50;;
20271;SDS011;10295;49.812;9.866;2023-02-15T01:52:47;87.80;;;31.57;;
20271;SDS011;10295;49.812;9.866;2023-02-15T01:55:15;83.80;;;29.87;;
20271;SDS011;10295;49.812;9.866;2023-02-15T01:57:43;86.63;;;30.30;;
20271;SDS011;10295;49.812;9.866;2023-02-15T02:00:12;77.20;;;28.13;;
20271;SDS011;10295;49.812;9.866;2023-02-15T02:02:40;80.97;;;29.17;;
20271;SDS011;10295;49.812;9.866;2023-02-15T02:05:09;82.43;;;30.47;;
20271;SDS011;10295;49.812;9.866;2023-02-15T02:07:40;83.43;;;30.83;;
20271;SDS011;10295;49.812;9.866;2023-02-15T02:10:09;81.23;;;28.13;;
20271;SDS011;10295;49.812;9.866;2023-02-15T02:12:36;83.00;;;30.37;;
20271;SDS011;10295;49.812;9.866;2023-02-15T02:15:05;74.03;;;28.43;;
20271;SDS011;10295;49.812;9.866;2023-02-15T02:17:45;79.77;;;28.43;;
20271;SDS011;10295;49.812;9.866;2023-02-15T02:20:30;77.77;;;27.70;;
20271;SDS011;10295;49.812;9.866;2023-02-15T02:28:22;82.90;;;29.63;;
20271;SDS011;10295;49.812;9.866;2023-02-15T02:31:07;82.37;;;27.57;;
20271;SDS011;10295;49.812;9.866;2023-02-15T02:33:42;70.80;;;27.00;;
20271;SDS011;10295;49.812;9.866;2023-02-15T02:46:33;77.13;;;27.80;;
20271;SDS011;10295;49.812;9.866;2023-02-15T02:49:02;76.97;;;27.80;;
20271;SDS011;10295;49.812;9.866;2023-02-15T02:51:29;77.00;;;28.47;;
20271;SDS011;10295;49.812;9.866;2023-02-15T02:53:56;81.40;;;27.93;;
20271;SDS011;10295;49.812;9.866;2023-02-15T02:59:06;75.87;;;28.97;;
20271;SDS011;10295;49.812;9.866;2023-02-15T03:01:39;77.70;;;27.47;;
20271;SDS011;10295;49.812;9.866;2023-02-15T03:04:13;77.43;;;29.23;;
20271;SDS011;10295;49.812;9.866;2023-02-15T03:09:39;80.03;;;29.57;;
20271;SDS011;10295;49.812;9.866;2023-02-15T03:12:09;70.80;;;27.57;;
20271;SDS011;10295;49.812;9.866;2023-02-15T03:14:38;72.33;;;27.23;;
20271;SDS011;10295;49.812;9.866;2023-02-15T03:17:06;71.93;;;26.77;;
20271;SDS011;10295;49.812;9.866;2023-02-15T03:19:35;69.33;;;26.10;;
20271;SDS011;10295;49.812;9.866;2023-02-15T03:22:06;72.07;;;28.63;;
20271;SDS011;10295;49.812;9.866;2023-02-15T03:24:36;73.17;;;26.27;;
20271;SDS011;10295;49.812;9.866;2023-02-15T03:27:05;69.30;;;25.90;;
20271;SDS011;10295;49.812;9.866;2023-02-15T03:29:33;70.37;;;26.17;;
20271;SDS011;10295;49.812;9.866;2023-02-15T03:32:03;71.20;;;25.77;;
20271;SDS011;10295;49.812;9.866;2023-02-15T03:34:32;67.70;;;25.93;;
20271;SDS011;10295;49.812;9.866;2023-02-15T03:37:00;60.90;;;24.80;;
20271;SDS011;10295;49.812;9.866;2023-02-15T03:39:32;68.00;;;26.20;;
20271;SDS011;10295;49.812;9.866;2023-02-15T03:42:24;66.20;;;24.73;;
20271;SDS011;10295;49.812;9.866;2023-02-15T03:44:54;67.03;;;24.23;;
20271;SDS011;10295;49.812;9.866;2023-02-15T03:47:25;66.03;;;26.53;;
20271;SDS011;10295;49.812;9.866;2023-02-15T03:49:55;71.20;;;26.70;;
20271;SDS011;10295;49.812;9.866;2023-02-15T03:52:24;69.27;;;26.60;;
20271;SDS011;10295;49.812;9.866;2023-02-15T03:54:53;67.10;;;25.67;;
20271;SDS011;10295;49.812;9.866;2023-02-15T03:57:24;64.53;;;25.27;;
20271;SDS011;10295;49.812;9.866;2023-02-15T04:00:45;64.77;;;25.17;;
20271;SDS011;10295;49.812;9.866;2023-02-15T04:05:50;63.03;;;25.80;;
20271;SDS011;10295;49.812;9.866;2023-02-15T04:08:17;62.67;;;24.60;;
20271;SDS011;10295;49.812;9.866;2023-02-15T04:10:44;61.63;;;24.60;;
20271;SDS011;10295;49.812;9.866;2023-02-15T04:13:23;66.83;;;26.60;;
20271;SDS011;10295;49.812;9.866;2023-02-15T04:15:50;61.60;;;23.47;;
20271;SDS011;10295;49.812;9.866;2023-02-15T04:18:32;63.57;;;26.23;;
20271;SDS011;10295;49.812;9.866;2023-02-15T04:21:19;66.47;;;25.87;;
20271;SDS011;10295;49.812;9.866;2023-02-15T04:24:05;64.73;;;26.60;;
20271;SDS011;10295;49.812;9.866;2023-02-15T04:26:51;63.60;;;26.43;;
20271;SDS011;10295;49.812;9.866;2023-02-15T04:29:22;70.23;;;28.20;;
20271;SDS011;10295;49.812;9.866;2023-02-15T04:31:50;64.57;;;27.37;;
20271;SDS011;10295;49.812;9.866;2023-02-15T04:34:18;71.50;;;26.23;;
20271;SDS011;10295;49.812;9.866;2023-02-15T04:36:45;61.80;;;25.60;;
20271;SDS011;10295;49.812;9.866;2023-02-15T04:39:13;64.10;;;25.17;;
20271;SDS011;10295;49.812;9.866;2023-02-15T04:41:40;60.77;;;25.07;;
20271;SDS011;10295;49.812;9.866;2023-02-15T04:44:08;64.57;;;25.50;;
20271;SDS011;10295;49.812;9.866;2023-02-15T04:46:35;59.47;;;24.07;;
20271;SDS011;10295;49.812;9.866;2023-02-15T04:49:02;61.17;;;24.97;;
20271;SDS011;10295;49.812;9.866;2023-02-15T04:51:30;73.77;;;27.50;;
20271;SDS011;10295;49.812;9.866;2023-02-15T04:53:57;61.40;;;24.23;;
20271;SDS011;10295;49.812;9.866;2023-02-15T04:56:24;63.97;;;24.97;;
20271;SDS011;10295;49.812;9.866;2023-02-15T04:58:51;60.67;;;21.63;;
20271;SDS011;10295;49.812;9.866;2023-02-15T05:01:18;66.27;;;26.60;;
20271;SDS011;10295;49.812;9.866;2023-02-15T05:03:45;68.90;;;25.93;;
20271;SDS011;10295;49.812;9.866;2023-02-15T05:06:13;65.23;;;26.47;;
20271;SDS011;10295;49.812;9.866;2023-02-15T05:08:40;64.47;;;25.13;;
20271;SDS011;10295;49.812;9.866;2023-02-15T05:11:07;59.47;;;23.37;;
20271;SDS011;10295;49.812;9.866;2023-02-15T05:13:34;55.40;;;20.90;;
20271;SDS011;10295;49.812;9.866;2023-02-15T05:16:01;56.97;;;22.93;;
20271;SDS011;10295;49.812;9.866;2023-02-15T05:18:29;62.70;;;24.33;;
20271;SDS011;10295;49.812;9.866;2023-02-15T05:20:56;57.57;;;22.97;;
20271;SDS011;10295;49.812;9.866;2023-02-15T05:23:23;54.93;;;22.47;;
20271;SDS011;10295;49.812;9.866;2023-02-15T05:25:50;58.13;;;23.10;;
20271;SDS011;10295;49.812;9.866;2023-02-15T05:28:37;60.47;;;24.87;;
20271;SDS011;10295;49.812;9.866;2023-02-15T05:31:08;61.73;;;24.77;;
20271;SDS011;10295;49.812;9.866;2023-02-15T05:33:36;59.60;;;23.80;;
20271;SDS011;10295;49.812;9.866;2023-02-15T05:36:04;65.53;;;26.27;;
20271;SDS011;10295;49.812;9.866;2023-02-15T05:38:32;58.03;;;22.77;;
20271;SDS011;10295;49.812;9.866;2023-02-15T05:40:59;57.90;;;23.70;;
20271;SDS011;10295;49.812;9.866;2023-02-15T05:43:26;56.90;;;21.00;;
20271;SDS011;10295;49.812;9.866;2023-02-15T05:45:54;54.63;;;23.03;;
20271;SDS011;10295;49.812;9.866;2023-02-15T05:48:22;62.50;;;24.83;;
20271;SDS011;10295;49.812;9.866;2023-02-15T05:50:59;60.03;;;24.23;;
20271;SDS011;10295;49.812;9.866;2023-02-15T05:53:27;63.17;;;24.13;;
20271;SDS011;10295;49.812;9.866;2023-02-15T05:55:54;61.10;;;24.20;;
20271;SDS011;10295;49.812;9.866;2023-02-15T05:58:26;64.23;;;23.63;;
20271;SDS011;10295;49.812;9.866;2023-02-15T06:00:53;57.60;;;24.33;;
20271;SDS011;10295;49.812;9.866;2023-02-15T06:03:21;67.23;;;25.00;;
20271;SDS011;10295;49.812;9.866;2023-02-15T06:05:49;57.30;;;23.73;;
20271;SDS011;10295;49.812;9.866;2023-02-15T06:08:16;60.73;;;23.80;;
20271;SDS011;10295;49.812;9.866;2023-02-15T06:10:45;60.57;;;24.17;;
20271;SDS011;10295;49.812;9.866;2023-02-15T06:13:12;55.83;;;21.50;;
20271;SDS011;10295;49.812;9.866;2023-02-15T06:15:39;62.73;;;22.37;;
20271;SDS011;10295;49.812;9.866;2023-02-15T06:18:07;58.03;;;23.57;;
20271;SDS011;10295;49.812;9.866;2023-02-15T06:20:34;62.90;;;23.27;;
20271;SDS011;10295;49.812;9.866;2023-02-15T06:23:01;62.40;;;23.27;;
20271;SDS011;10295;49.812;9.866;2023-02-15T06:25:28;59.77;;;22.40;;
20271;SDS011;10295;49.812;9.866;2023-02-15T06:27:55;57.17;;;22.50;;
20271;SDS011;10295;49.812;9.866;2023-02-15T06:30:22;62.63;;;23.53;;
20271;SDS011;10295;49.812;9.866;2023-02-15T06:32:50;65.57;;;23.13;;
20271;SDS011;10295;49.812;9.866;2023-02-15T06:35:17;59.07;;;22.47;;
20271;SDS011;10295;49.812;9.866;2023-02-15T06:37:47;56.70;;;22.10;;
20271;SDS011;10295;49.812;9.866;2023-02-15T06:40:14;62.17;;;22.60;;
20271;SDS011;10295;49.812;9.866;2023-02-15T06:42:42;58.23;;;22.00;;
20271;SDS011;10295;49.812;9.866;2023-02-15T06:45:09;56.73;;;21.27;;
20271;SDS011;10295;49.812;9.866;2023-02-15T06:47:37;55.60;;;21.70;;
20271;SDS011;10295;49.812;9.866;2023-02-15T06:50:04;59.93;;;22.37;;
20271;SDS011;10295;49.812;9.866;2023-02-15T06:52:32;57.73;;;22.93;;
20271;SDS011;10295;49.812;9.866;2023-02-15T06:54:59;61.87;;;23.57;;
20271;SDS011;10295;49.812;9.866;2023-02-15T06:57:26;58.00;;;22.20;;
20271;SDS011;10295;49.812;9.866;2023-02-15T06:59:53;59.90;;;23.57;;
20271;SDS011;10295;49.812;9.866;2023-02-15T07:02:20;59.73;;;23.17;;
20271;SDS011;10295;49.812;9.866;2023-02-15T07:04:47;64.20;;;23.70;;
20271;SDS011;10295;49.812;9.866;2023-02-15T07:07:15;67.33;;;24.37;;
20271;SDS011;10295;49.812;9.866;2023-02-15T07:09:42;63.10;;;24.03;;
20271;SDS011;10295;49.812;9.866;2023-02-15T07:12:09;62.77;;;24.17;;
20271;SDS011;10295;49.812;9.866;2023-02-15T07:14:55;61.70;;;22.33;;
20271;SDS011;10295;49.812;9.866;2023-02-15T07:17:24;64.57;;;24.10;;
20271;SDS011;10295;49.812;9.866;2023-02-15T07:20:20;64.70;;;24.33;;
20271;SDS011;10295;49.812;9.866;2023-02-15T07:22:48;64.00;;;23.60;;
20271;SDS011;10295;49.812;9.866;2023-02-15T07:25:16;60.17;;;22.37;;
20271;SDS011;10295;49.812;9.866;2023-02-15T07:27:43;67.00;;;24.07;;
20271;SDS011;10295;49.812;9.866;2023-02-15T07:30:12;58.70;;;21.80;;
20271;SDS011;10295;49.812;9.866;2023-02-15T07:32:40;60.17;;;22.43;;
20271;SDS011;10295;49.812;9.866;2023-02-15T07:35:30;58.53;;;23.23;;
20271;SDS011;10295;49.812;9.866;2023-02-15T07:37:57;61.60;;;21.67;;
20271;SDS011;10295;49.812;9.866;2023-02-15T07:40:24;56.87;;;22.33;;
20271;SDS011;10295;49.812;9.866;2023-02-15T07:42:52;59.10;;;22.37;;
20271;SDS011;10295;49.812;9.866;2023-02-15T07:45:21;60.57;;;22.33;;
20271;SDS011;10295;49.812;9.866;2023-02-15T07:47:48;55.00;;;21.70;;
20271;SDS011;10295;49.812;9.866;2023-02-15T07:50:15;55.70;;;20.50;;
20271;SDS011;10295;49.812;9.866;2023-02-15T07:52:42;55.03;;;19.93;;
20271;SDS011;10295;49.812;9.866;2023-02-15T07:55:09;54.63;;;21.20;;
20271;SDS011;10295;49.812;9.866;2023-02-15T07:57:42;48.20;;;19.23;;
20271;SDS011;10295;49.812;9.866;2023-02-15T08:00:11;49.70;;;19.60;;
20271;SDS011;10295;49.812;9.866;2023-02-15T08:02:39;52.97;;;20.17;;
20271;SDS011;10295;49.812;9.866;2023-02-15T08:05:06;46.57;;;17.90;;
20271;SDS011;10295;49.812;9.866;2023-02-15T08:07:34;50.03;;;19.33;;
20271;SDS011;10295;49.812;9.866;2023-02-15T08:10:01;47.60;;;18.10;;
20271;SDS011;10295;49.812;9.866;2023-02-15T08:12:28;43.87;;;16.03;;
20271;SDS011;10295;49.812;9.866;2023-02-15T08:14:55;48.80;;;18.77;;
20271;SDS011;10295;49.812;9.866;2023-02-15T08:17:22;46.93;;;19.00;;
20271;SDS011;10295;49.812;9.866;2023-02-15T08:19:50;45.50;;;18.43;;
20271;SDS011;10295;49.812;9.866;2023-02-15T08:22:17;44.80;;;17.63;;
20271;SDS011;10295;49.812;9.866;2023-02-15T08:24:44;49.63;;;19.60;;
20271;SDS011;10295;49.812;9.866;2023-02-15T08:27:11;47.00;;;18.80;;
20271;SDS011;10295;49.812;9.866;2023-02-15T08:29:38;49.47;;;20.03;;
20271;SDS011;10295;49.812;9.866;2023-02-15T08:32:08;48.30;;;19.37;;
20271;SDS011;10295;49.812;9.866;2023-02-15T08:34:38;43.17;;;17.33;;
20271;SDS011;10295;49.812;9.866;2023-02-15T08:37:05;46.07;;;18.83;;
20271;SDS011;10295;49.812;9.866;2023-02-15T08:39:32;44.67;;;17.80;;
20271;SDS011;10295;49.812;9.866;2023-02-15T08:42:00;49.10;;;19.17;;
20271;SDS011;10295;49.812;9.866;2023-02-15T08:44:27;45.50;;;19.17;;
20271;SDS011;10295;49.812;9.866;2023-02-15T08:46:54;50.47;;;19.80;;
20271;SDS011;10295;49.812;9.866;2023-02-15T08:49:23;48.43;;;19.47;;
20271;SDS011;10295;49.812;9.866;2023-02-15T08:51:50;50.43;;;21.03;;
20271;SDS011;10295;49.812;9.866;2023-02-15T08:54:18;48.80;;;19.20;;
20271;SDS011;10295;49.812;9.866;2023-02-15T08:56:46;47.33;;;20.10;;
20271;SDS011;10295;49.812;9.866;2023-02-15T08:59:14;34.80;;;13.07;;
20271;SDS011;10295;49.812;9.866;2023-02-15T09:01:42;46.90;;;17.97;;
20271;SDS011;10295;49.812;9.866;2023-02-15T09:04:09;49.23;;;19.80;;
20271;SDS011;10295;49.812;9.866;2023-02-15T09:06:37;48.37;;;18.87;;
20271;SDS011;10295;49.812;9.866;2023-02-15T09:09:05;51.63;;;21.53;;
20271;SDS011;10295;49.812;9.866;2023-02-15T09:11:36;52.77;;;19.50;;
20271;SDS011;10295;49.812;9.866;2023-02-15T09:14:13;46.00;;;20.20;;
20271;SDS011;10295;49.812;9.866;2023-02-15T09:16:41;50.23;;;20.20;;
20271;SDS011;10295;49.812;9.866;2023-02-15T09:19:12;52.00;;;20.97;;
20271;SDS011;10295;49.812;9.866;2023-02-15T09:21:39;53.27;;;22.13;;
20271;SDS011;10295;49.812;9.866;2023-02-15T09:24:08;56.63;;;22.73;;
20271;SDS011;10295;49.812;9.866;2023-02-15T09:26:37;48.27;;;20.87;;
20271;SDS011;10295;49.812;9.866;2023-02-15T09:29:06;49.07;;;21.50;;
20271;SDS011;10295;49.812;9.866;2023-02-15T09:31:37;56.73;;;23.40;;
20271;SDS011;10295;49.812;9.866;2023-02-15T09:34:04;50.13;;;21.30;;
20271;SDS011;10295;49.812;9.866;2023-02-15T09:36:33;48.27;;;20.50;;
20271;SDS011;10295;49.812;9.866;2023-02-15T09:49:17;57.90;;;22.87;;
20271;SDS011;10295;49.812;9.866;2023-02-15T09:57:35;69.17;;;24.03;;
20271;SDS011;10295;49.812;9.866;2023-02-15T10:07:49;62.07;;;23.93;;
20271;SDS011;10295;49.812;9.866;2023-02-15T10:12:57;60.77;;;22.93;;
20271;SDS011;10295;49.812;9.866;2023-02-15T10:15:29;59.50;;;24.23;;
20271;SDS011;10295;49.812;9.866;2023-02-15T10:28:06;55.97;;;22.57;;
20271;SDS011;10295;49.812;9.866;2023-02-15T10:30:46;55.50;;;22.53;;
20271;SDS011;10295;49.812;9.866;2023-02-15T10:38:36;52.07;;;22.67;;
20271;SDS011;10295;49.812;9.866;2023-02-15T10:46:11;48.40;;;18.00;;
20271;SDS011;10295;49.812;9.866;2023-02-15T10:48:58;54.53;;;21.63;;
20271;SDS011;10295;49.812;9.866;2023-02-15T10:51:44;55.60;;;21.60;;
20271;SDS011;10295;49.812;9.866;2023-02-15T10:54:22;54.63;;;22.63;;
20271;SDS011;10295;49.812;9.866;2023-02-15T10:57:03;51.50;;;21.00;;
20271;SDS011;10295;49.812;9.866;2023-02-15T11:07:08;55.80;;;22.10;;
20271;SDS011;10295;49.812;9.866;2023-02-15T11:09:42;49.57;;;22.17;;
20271;SDS011;10295;49.812;9.866;2023-02-15T11:12:12;58.27;;;23.10;;
20271;SDS011;10295;49.812;9.866;2023-02-15T11:14:44;52.63;;;20.47;;
20271;SDS011;10295;49.812;9.866;2023-02-15T11:17:15;49.10;;;20.63;;
20271;SDS011;10295;49.812;9.866;2023-02-15T11:19:58;55.07;;;21.77;;
20271;SDS011;10295;49.812;9.866;2023-02-15T11:22:29;49.83;;;21.73;;
20271;SDS011;10295;49.812;9.866;2023-02-15T11:24:57;53.63;;;23.07;;
20271;SDS011;10295;49.812;9.866;2023-02-15T11:27:26;48.07;;;20.40;;
20271;SDS011;10295;49.812;9.866;2023-02-15T11:30:00;52.57;;;22.27;;
20271;SDS011;10295;49.812;9.866;2023-02-15T11:32:33;53.50;;;23.10;;
20271;SDS011;10295;49.812;9.866;2023-02-15T11:37:31;50.70;;;21.23;;
20271;SDS011;10295;49.812;9.866;2023-02-15T11:40:00;50.50;;;21.33;;
20271;SDS011;10295;49.812;9.866;2023-02-15T11:42:29;52.27;;;22.30;;
20271;SDS011;10295;49.812;9.866;2023-02-15T11:44:59;50.03;;;20.70;;
20271;SDS011;10295;49.812;9.866;2023-02-15T11:47:29;54.10;;;21.90;;
20271;SDS011;10295;49.812;9.866;2023-02-15T11:49:56;52.77;;;21.90;;
20271;SDS011;10295;49.812;9.866;2023-02-15T11:52:24;51.67;;;21.77;;
20271;SDS011;10295;49.812;9.866;2023-02-15T11:54:51;52.73;;;22.23;;
20271;SDS011;10295;49.812;9.866;2023-02-15T11:57:31;61.97;;;25.30;;
20271;SDS011;10295;49.812;9.866;2023-02-15T12:00:06;68.00;;;25.83;;
20271;SDS011;10295;49.812;9.866;2023-02-15T12:02:37;52.77;;;23.67;;
20271;SDS011;10295;49.812;9.866;2023-02-15T12:05:16;53.90;;;22.77;;
20271;SDS011;10295;49.812;9.866;2023-02-15T12:07:46;55.63;;;23.10;;
20271;SDS011;10295;49.812;9.866;2023-02-15T12:10:23;52.63;;;23.27;;
20271;SDS011;10295;49.812;9.866;2023-02-15T12:15:36;61.00;;;25.33;;
20271;SDS011;10295;49.812;9.866;2023-02-15T12:18:04;53.17;;;23.10;;
20271;SDS011;10295;49.812;9.866;2023-02-15T12:20:32;51.57;;;21.87;;
20271;SDS011;10295;49.812;9.866;2023-02-15T12:23:01;48.50;;;21.33;;
20271;SDS011;10295;49.812;9.866;2023-02-15T12:27:56;52.13;;;22.33;;
20271;SDS011;10295;49.812;9.866;2023-02-15T12:30:34;92.70;;;39.40;;
20271;SDS011;10295;49.812;9.866;2023-02-15T12:35:32;52.07;;;21.70;;
20271;SDS011;10295;49.812;9.866;2023-02-15T12:40:37;50.37;;;21.07;;
20271;SDS011;10295;49.812;9.866;2023-02-15T12:43:24;52.77;;;21.80;;
20271;SDS011;10295;49.812;9.866;2023-02-15T12:45:51;50.67;;;21.97;;
20271;SDS011;10295;49.812;9.866;2023-02-15T12:48:19;52.70;;;21.60;;
20271;SDS011;10295;49.812;9.866;2023-02-15T12:50:49;52.27;;;23.10;;
20271;SDS011;10295;49.812;9.866;2023-02-15T12:53:21;52.87;;;22.83;;
20271;SDS011;10295;49.812;9.866;2023-02-15T12:55:56;54.73;;;23.03;;
20271;SDS011;10295;49.812;9.866;2023-02-15T12:58:24;51.23;;;23.27;;
20271;SDS011;10295;49.812;9.866;2023-02-15T13:01:12;49.00;;;22.10;;
20271;SDS011;10295;49.812;9.866;2023-02-15T13:03:56;51.87;;;23.23;;
20271;SDS011;10295;49.812;9.866;2023-02-15T13:06:24;49.53;;;22.20;;
20271;SDS011;10295;49.812;9.866;2023-02-15T13:08:53;49.00;;;21.13;;
20271;SDS011;10295;49.812;9.866;2023-02-15T13:11:21;46.83;;;20.90;;
20271;SDS011;10295;49.812;9.866;2023-02-15T13:13:51;52.90;;;22.50;;
20271;SDS011;10295;49.812;9.866;2023-02-15T13:16:21;54.07;;;23.60;;
20271;SDS011;10295;49.812;9.866;2023-02-15T13:18:51;51.30;;;22.87;;
20271;SDS011;10295;49.812;9.866;2023-02-15T13:21:20;53.13;;;23.17;;
20271;SDS011;10295;49.812;9.866;2023-02-15T13:23:53;53.53;;;23.17;;
20271;SDS011;10295;49.812;9.866;2023-02-15T13:26:23;49.27;;;22.13;;
20271;SDS011;10295;49.812;9.866;2023-02-15T13:28:54;50.43;;;22.73;;
20271;SDS011;10295;49.812;9.866;2023-02-15T13:31:26;55.93;;;22.50;;
20271;SDS011;10295;49.812;9.866;2023-02-15T13:33:56;49.57;;;22.40;;
20271;SDS011;10295;49.812;9.866;2023-02-15T13:36:27;49.63;;;22.43;;
20271;SDS011;10295;49.812;9.866;2023-02-15T13:41:30;53.07;;;22.80;;
20271;SDS011;10295;49.812;9.866;2023-02-15T13:44:04;56.13;;;22.97;;
20271;SDS011;10295;49.812;9.866;2023-02-15T13:46:39;52.40;;;22.90;;
20271;SDS011;10295;49.812;9.866;2023-02-15T14:04:50;47.47;;;21.43;;
20271;SDS011;10295;49.812;9.866;2023-02-15T14:09:51;48.13;;;23.30;;
20271;SDS011;10295;49.812;9.866;2023-02-15T14:19:52;45.70;;;21.47;;
20271;SDS011;10295;49.812;9.866;2023-02-15T14:22:35;48.77;;;22.20;;
20271;SDS011;10295;49.812;9.866;2023-02-15T14:25:17;52.67;;;22.77;;
20271;SDS011;10295;49.812;9.866;2023-02-15T14:27:50;53.60;;;22.60;;
20271;SDS011;10295;49.812;9.866;2023-02-15T14:30:21;49.00;;;22.83;;
20271;SDS011;10295;49.812;9.866;2023-02-15T14:32:54;48.00;;;21.50;;
20271;SDS011;10295;49.812;9.866;2023-02-15T14:35:24;50.13;;;21.87;;
20271;SDS011;10295;49.812;9.866;2023-02-15T14:40:31;48.87;;;23.60;;
20271;SDS011;10295;49.812;9.866;2023-02-15T14:45:55;58.03;;;22.47;;
20271;SDS011;10295;49.812;9.866;2023-02-15T14:48:25;52.07;;;23.87;;
20271;SDS011;10295;49.812;9.866;2023-02-15T14:50:56;53.70;;;24.03;;
20271;SDS011;10295;49.812;9.866;2023-02-15T15:01:28;52.60;;;23.73;;
20271;SDS011;10295;49.812;9.866;2023-02-15T15:03:57;57.30;;;23.07;;
20271;SDS011;10295;49.812;9.866;2023-02-15T15:06:27;59.90;;;24.87;;
20271;SDS011;10295;49.812;9.866;2023-02-15T15:08:55;56.87;;;23.53;;
20271;SDS011;10295;49.812;9.866;2023-02-15T15:14:08;52.57;;;24.27;;
20271;SDS011;10295;49.812;9.866;2023-02-15T15:19:04;51.50;;;23.63;;
20271;SDS011;10295;49.812;9.866;2023-02-15T15:29:51;53.53;;;23.73;;
20271;SDS011;10295;49.812;9.866;2023-02-15T15:32:19;55.77;;;24.87;;
20271;SDS011;10295;49.812;9.866;2023-02-15T15:50:32;59.17;;;25.17;;
20271;SDS011;10295;49.812;9.866;2023-02-15T15:53:00;63.90;;;26.93;;
20271;SDS011;10295;49.812;9.866;2023-02-15T15:55:29;58.30;;;25.97;;
20271;SDS011;10295;49.812;9.866;2023-02-15T15:58:02;62.07;;;26.30;;
20271;SDS011;10295;49.812;9.866;2023-02-15T16:00:50;59.17;;;27.03;;
20271;SDS011;10295;49.812;9.866;2023-02-15T16:03:22;61.93;;;28.10;;
20271;SDS011;10295;49.812;9.866;2023-02-15T16:05:49;60.23;;;27.13;;
20271;SDS011;10295;49.812;9.866;2023-02-15T16:10:54;66.33;;;27.47;;
20271;SDS011;10295;49.812;9.866;2023-02-15T16:13:21;65.00;;;28.20;;
20271;SDS011;10295;49.812;9.866;2023-02-15T16:15:50;63.07;;;27.47;;
20271;SDS011;10295;49.812;9.866;2023-02-15T16:18:20;62.90;;;27.13;;
20271;SDS011;10295;49.812;9.866;2023-02-15T16:20:54;62.40;;;28.50;;
20271;SDS011;10295;49.812;9.866;2023-02-15T16:28:50;63.40;;;26.93;;
20271;SDS011;10295;49.812;9.866;2023-02-15T16:31:17;65.90;;;28.60;;
20271;SDS011;10295;49.812;9.866;2023-02-15T16:33:45;68.87;;;30.00;;
20271;SDS011;10295;49.812;9.866;2023-02-15T16:36:34;75.70;;;31.97;;
20271;SDS011;10295;49.812;9.866;2023-02-15T16:39:06;71.40;;;31.73;;
20271;SDS011;10295;49.812;9.866;2023-02-15T16:41:33;65.70;;;28.93;;
20271;SDS011;10295;49.812;9.866;2023-02-15T16:44:05;71.47;;;29.93;;
20271;SDS011;10295;49.812;9.866;2023-02-15T16:46:36;72.20;;;29.73;;
20271;SDS011;10295;49.812;9.866;2023-02-15T16:49:05;69.70;;;28.83;;
20271;SDS011;10295;49.812;9.866;2023-02-15T16:51:33;66.17;;;30.67;;
20271;SDS011;10295;49.812;9.866;2023-02-15T16:54:23;70.73;;;32.07;;
20271;SDS011;10295;49.812;9.866;2023-02-15T16:56:49;71.63;;;31.73;;
20271;SDS011;10295;49.812;9.866;2023-02-15T16:59:28;79.53;;;32.47;;
20271;SDS011;10295;49.812;9.866;2023-02-15T17:01:57;69.60;;;29.40;;
20271;SDS011;10295;49.812;9.866;2023-02-15T17:04:29;66.37;;;27.63;;
20271;SDS011;10295;49.812;9.866;2023-02-15T17:07:15;71.90;;;29.43;;
20271;SDS011;10295;49.812;9.866;2023-02-15T17:09:53;69.40;;;28.43;;
20271;SDS011;10295;49.812;9.866;2023-02-15T17:15:23;70.60;;;29.83;;
20271;SDS011;10295;49.812;9.866;2023-02-15T17:17:51;75.80;;;32.03;;
20271;SDS011;10295;49.812;9.866;2023-02-15T17:20:18;76.73;;;31.87;;
20271;SDS011;10295;49.812;9.866;2023-02-15T17:22:46;76.73;;;30.90;;
20271;SDS011;10295;49.812;9.866;2023-02-15T17:25:20;83.03;;;34.17;;
20271;SDS011;10295;49.812;9.866;2023-02-15T17:27:51;77.27;;;31.40;;
20271;SDS011;10295;49.812;9.866;2023-02-15T17:30:37;76.60;;;31.67;;
20271;SDS011;10295;49.812;9.866;2023-02-15T17:33:05;79.70;;;31.23;;
20271;SDS011;10295;49.812;9.866;2023-02-15T17:35:45;74.60;;;32.03;;
20271;SDS011;10295;49.812;9.866;2023-02-15T17:38:28;75.80;;;32.07;;